ETSN weather

Neuburg AFB
Neuburg (Donau), Bavaria, Germany

Public forecast

Using degrees Celsius for public forecast. Weather courtesy of forecast.io.

METAR (pilot weather report)

Retrieved 2019/08/18 20:39 UTC (13 minutes ago):

ETSN 182039Z 31003KT 9999 TS VCSH SCT050CB BKN100 24/15 Q1012 BLU

TAF (pilot weather forecast)

Forecast is more than 12 hours old.

Retrieved 2018/05/21 20:36 UTC (1 year ago):

TAF TAF ETSN 211900Z 2120/2208 07008KT 9999 NSW FEW060 TEMPO 2201/2205 09003KT 3000 BR SKC BY ETGL